Time;durP1;ratioP1;P1;durP2;ratioP2;P2;SDS_P1;SDS_P2;PMS_P1;PMS_P2;Temp;Humidity;BMP_temperature;BMP_pressure;BME280_temperature;BME280_humidity;BME280_pressure;Samples;Min_cycle;Max_cycle;Signal;HPM_P1;HPM_P2
2022/11/15 06:11:49;;;;;;;24.67;14.02;;;;;;;;;;5025470;23;20061;-60
2022/11/15 06:14:15;;;;;;;24.85;14.07;;;;;;;;;;4971535;28;20035;-61
2022/11/15 06:16:41;;;;;;;28.25;14.35;;;;;;;;;;4971282;28;20101;-62
2022/11/15 06:19:07;;;;;;;26.90;15.70;;;;;;;;;;4971708;28;20039;-61
2022/11/15 06:21:33;;;;;;;28.70;15.15;;;;;;;;;;4971507;28;20023;-61
2022/11/15 06:23:59;;;;;;;24.88;14.68;;;;;;;;;;4970897;28;20045;-61
2022/11/15 06:26:25;;;;;;;29.70;15.45;;;;;;;;;;4970924;28;20117;-69
2022/11/15 06:28:51;;;;;;;28.77;14.35;;;;;;;;;;4970645;28;20438;-70
2022/11/15 06:31:17;;;;;;;25.83;14.38;;;;;;;;;;4969881;28;20077;-65
2022/11/15 06:33:43;;;;;;;25.45;13.90;;;;;;;;;;4970133;28;20418;-71
2022/11/15 06:36:13;;;;;;;27.30;13.60;;;;;;;;;;4970285;28;20378;-61
2022/11/15 06:38:39;;;;;;;27.20;15.48;;;;;;;;;;4969398;28;20031;-61
2022/11/15 06:41:07;;;;;;;25.13;12.98;;;;;;;;;;4973994;28;20055;-61
2022/11/15 06:43:33;;;;;;;21.42;12.82;;;;;;;;;;4974121;28;20031;-60
2022/11/15 06:45:59;;;;;;;23.08;13.43;;;;;;;;;;4971146;28;20085;-65
2022/11/15 06:48:26;;;;;;;24.83;13.43;;;;;;;;;;4973658;28;20114;-61
2022/11/15 06:50:52;;;;;;;24.00;12.38;;;;;;;;;;4973115;28;20070;-62
2022/11/15 06:53:18;;;;;;;23.35;12.75;;;;;;;;;;4970634;28;20022;-59
2022/11/15 06:55:44;;;;;;;20.88;12.15;;;;;;;;;;4973183;28;20023;-61
2022/11/15 06:58:10;;;;;;;23.00;13.18;;;;;;;;;;4973287;28;20030;-62
2022/11/15 07:00:36;;;;;;;28.10;13.27;;;;;;;;;;4973519;28;20478;-65
2022/11/15 07:03:03;;;;;;;21.75;12.35;;;;;;;;;;4973443;28;20079;-70
2022/11/15 07:05:29;;;;;;;22.85;12.65;;;;;;;;;;4973432;28;20019;-69
2022/11/15 07:07:55;;;;;;;21.70;12.82;;;;;;;;;;4972979;28;20106;-61
2022/11/15 07:10:23;;;;;;;25.02;14.25;;;;;;;;;;4973409;28;20406;-60
2022/11/15 07:12:49;;;;;;;25.13;14.23;;;;;;;;;;4962575;28;20053;-60
2022/11/15 07:15:16;;;;;;;28.38;14.32;;;;;;;;;;4965090;28;20027;-61
2022/11/15 07:17:42;;;;;;;27.85;14.32;;;;;;;;;;4963268;28;20034;-69
2022/11/15 07:20:09;;;;;;;27.23;15.02;;;;;;;;;;4959229;28;20055;-63
2022/11/15 07:22:35;;;;;;;25.42;14.65;;;;;;;;;;4956812;28;20027;-62
2022/11/15 07:25:01;;;;;;;27.33;14.32;;;;;;;;;;4954733;29;20023;-63
2022/11/15 07:27:27;;;;;;;24.13;14.50;;;;;;;;;;4962713;28;20031;-62
2022/11/15 07:29:53;;;;;;;25.48;14.90;;;;;;;;;;4963421;28;20102;-63
2022/11/15 07:32:19;;;;;;;28.88;15.18;;;;;;;;;;4956103;28;20027;-66
2022/11/15 07:34:46;;;;;;;23.67;12.90;;;;;;;;;;4956216;28;20027;-63
2022/11/15 07:37:12;;;;;;;24.67;12.65;;;;;;;;;;4973703;28;20042;-63
2022/11/15 07:39:38;;;;;;;22.17;13.23;;;;;;;;;;4973664;28;20027;-66
2022/11/15 07:44:49;;;;;;;28.23;15.63;;;;;;;;;;4971437;28;20045;-63
2022/11/15 07:47:15;;;;;;;24.40;14.40;;;;;;;;;;4957345;28;20058;-61
2022/11/15 07:49:41;;;;;;;27.88;14.57;;;;;;;;;;4948722;28;20088;-62
2022/11/15 07:52:07;;;;;;;25.52;13.95;;;;;;;;;;4962017;28;20111;-60
2022/11/15 07:54:33;;;;;;;22.27;13.23;;;;;;;;;;4962126;28;20467;-60
2022/11/15 07:56:59;;;;;;;22.52;13.52;;;;;;;;;;4963498;28;20053;-66
2022/11/15 07:59:25;;;;;;;25.52;13.73;;;;;;;;;;4961359;28;20073;-67
2022/11/15 08:01:51;;;;;;;21.88;12.80;;;;;;;;;;4962461;28;20471;-60
2022/11/15 08:04:17;;;;;;;21.95;12.98;;;;;;;;;;4969144;28;20462;-62
2022/11/15 08:06:43;;;;;;;26.35;13.38;;;;;;;;;;4972343;28;20081;-71
2022/11/15 08:09:09;;;;;;;25.40;14.27;;;;;;;;;;4972692;28;20033;-60
2022/11/15 08:11:35;;;;;;;24.42;14.35;;;;;;;;;;4971580;28;20064;-69
2022/11/15 08:14:01;;;;;;;22.10;13.15;;;;;;;;;;4972955;28;20057;-68
2022/11/15 08:16:27;;;;;;;21.38;13.10;;;;;;;;;;4972876;28;20034;-65
2022/11/15 08:18:53;;;;;;;26.17;14.65;;;;;;;;;;4972742;28;20023;-60
2022/11/15 08:21:20;;;;;;;25.15;14.45;;;;;;;;;;4972767;28;20499;-67
2022/11/15 08:23:47;;;;;;;25.40;13.82;;;;;;;;;;4972507;28;20045;-60
2022/11/15 08:26:13;;;;;;;27.10;14.20;;;;;;;;;;4972891;28;20073;-65
2022/11/15 08:28:39;;;;;;;24.98;14.35;;;;;;;;;;4967342;28;20082;-60
2022/11/15 08:31:05;;;;;;;26.25;14.52;;;;;;;;;;4960727;28;20471;-69
2022/11/15 08:33:32;;;;;;;26.35;14.52;;;;;;;;;;4967919;28;20031;-60
2022/11/15 08:35:59;;;;;;;28.10;14.63;;;;;;;;;;4953107;29;20093;-63
2022/11/15 08:38:25;;;;;;;27.50;14.93;;;;;;;;;;4953269;29;20449;-61
2022/11/15 08:40:52;;;;;;;27.90;14.93;;;;;;;;;;4952771;29;20062;-68
2022/11/15 08:43:18;;;;;;;24.45;15.13;;;;;;;;;;4952813;29;20031;-61
2022/11/15 08:45:44;;;;;;;26.63;15.30;;;;;;;;;;4952987;29;20051;-70
2022/11/15 08:48:10;;;;;;;28.63;15.23;;;;;;;;;;4952999;29;20121;-62
2022/11/15 08:50:37;;;;;;;27.27;14.57;;;;;;;;;;4952838;29;20077;-64
2022/11/15 08:53:08;;;;;;;27.00;15.10;;;;;;;;;;4952767;29;20034;-67
2022/11/15 08:55:36;;;;;;;26.10;15.18;;;;;;;;;;4952965;29;20034;-61
2022/11/15 08:58:02;;;;;;;25.17;15.00;;;;;;;;;;4952883;29;20494;-60
2022/11/15 09:00:28;;;;;;;22.88;14.48;;;;;;;;;;4963653;28;20146;-61
2022/11/15 09:02:54;;;;;;;23.95;14.95;;;;;;;;;;4972051;28;20054;-61
2022/11/15 09:05:20;;;;;;;25.88;15.10;;;;;;;;;;4972407;28;20026;-71
2022/11/15 09:07:46;;;;;;;24.38;14.50;;;;;;;;;;4972374;28;20046;-67
2022/11/15 09:10:12;;;;;;;25.90;15.63;;;;;;;;;;4971875;28;20046;-69
2022/11/15 09:12:39;;;;;;;27.13;16.00;;;;;;;;;;4971759;28;20058;-72
2022/11/15 09:15:06;;;;;;;26.23;15.30;;;;;;;;;;4972539;28;20030;-68
2022/11/15 09:17:32;;;;;;;29.48;15.45;;;;;;;;;;4971728;28;20082;-62
2022/11/15 09:19:58;;;;;;;26.05;14.68;;;;;;;;;;4972173;28;20109;-63
2022/11/15 09:22:24;;;;;;;23.70;14.48;;;;;;;;;;4972031;28;20552;-67
2022/11/15 09:24:50;;;;;;;24.85;14.75;;;;;;;;;;4971731;28;20106;-60
2022/11/15 09:27:16;;;;;;;25.20;14.55;;;;;;;;;;4972198;28;20058;-60
2022/11/15 09:29:42;;;;;;;23.90;14.27;;;;;;;;;;4971075;28;20046;-60
2022/11/15 09:32:08;;;;;;;24.40;14.38;;;;;;;;;;4972123;28;20144;-64
2022/11/15 09:34:34;;;;;;;24.75;15.45;;;;;;;;;;4971573;28;20038;-60
2022/11/15 09:37:00;;;;;;;29.08;16.02;;;;;;;;;;4971526;28;20027;-64
2022/11/15 09:39:26;;;;;;;30.95;17.10;;;;;;;;;;4967305;28;20106;-61
2022/11/15 09:41:52;;;;;;;24.45;14.68;;;;;;;;;;4952428;29;20101;-59
2022/11/15 09:44:37;;;;;;;24.55;14.38;;;;;;;;;;4952135;29;20491;-60
2022/11/15 09:47:03;;;;;;;25.60;15.02;;;;;;;;;;4952563;29;20078;-70
2022/11/15 09:49:30;;;;;;;26.90;15.00;;;;;;;;;;4952249;29;20035;-64
2022/11/15 09:51:56;;;;;;;32.95;15.85;;;;;;;;;;4952718;29;20156;-59
2022/11/15 09:54:44;;;;;;;24.77;14.95;;;;;;;;;;4952196;29;20241;-59
2022/11/15 09:57:12;;;;;;;26.02;14.75;;;;;;;;;;4952313;29;20027;-60
2022/11/15 09:59:41;;;;;;;25.13;14.48;;;;;;;;;;4952166;29;20034;-66
2022/11/15 10:02:25;;;;;;;24.42;14.57;;;;;;;;;;4952134;29;20030;-61
2022/11/15 10:04:52;;;;;;;25.52;14.73;;;;;;;;;;4952683;29;20027;-65
2022/11/15 10:07:21;;;;;;;26.48;15.27;;;;;;;;;;4951738;29;20031;-70
2022/11/15 10:09:53;;;;;;;26.90;15.02;;;;;;;;;;4952316;29;20138;-61
2022/11/15 10:12:19;;;;;;;22.98;14.32;;;;;;;;;;4951619;28;20055;-66
2022/11/15 10:14:46;;;;;;;26.27;15.65;;;;;;;;;;4955472;29;20037;-66
2022/11/15 10:17:31;;;;;;;25.73;15.88;;;;;;;;;;4955796;29;20028;-68
2022/11/15 10:20:03;;;;;;;27.25;14.75;;;;;;;;;;4955899;29;20045;-61
2022/11/15 10:22:38;;;;;;;24.73;14.98;;;;;;;;;;4955982;29;20467;-60
2022/11/15 10:25:04;;;;;;;25.30;15.70;;;;;;;;;;4956109;29;20039;-70
2022/11/15 10:27:30;;;;;;;29.85;15.88;;;;;;;;;;4955457;29;20042;-70
2022/11/15 10:29:56;;;;;;;27.15;16.13;;;;;;;;;;4955736;29;20395;-66
2022/11/15 10:32:22;;;;;;;27.60;15.82;;;;;;;;;;4955809;29;20446;-60
2022/11/15 10:34:49;;;;;;;27.13;16.42;;;;;;;;;;4955322;29;20065;-71
2022/11/15 10:37:15;;;;;;;25.45;15.20;;;;;;;;;;4955466;29;20027;-60
2022/11/15 10:39:42;;;;;;;26.10;16.08;;;;;;;;;;4955539;29;20023;-61
2022/11/15 10:42:17;;;;;;;28.90;15.50;;;;;;;;;;4955424;29;20040;-61
2022/11/15 10:44:44;;;;;;;23.70;14.48;;;;;;;;;;4955201;29;20031;-67
2022/11/15 10:47:22;;;;;;;23.13;14.27;;;;;;;;;;4955349;29;20023;-60
2022/11/15 10:49:56;;;;;;;22.77;13.43;;;;;;;;;;4955253;29;20067;-60
2022/11/15 10:52:23;;;;;;;27.67;15.48;;;;;;;;;;4955295;29;20023;-61
2022/11/15 10:55:02;;;;;;;23.95;14.77;;;;;;;;;;4955061;29;20035;-60
2022/11/15 10:57:33;;;;;;;24.13;14.40;;;;;;;;;;4954792;29;20038;-61
2022/11/15 11:00:05;;;;;;;24.58;14.25;;;;;;;;;;4953483;29;20031;-63
2022/11/15 11:02:36;;;;;;;25.83;15.30;;;;;;;;;;4958213;28;20041;-61
2022/11/15 11:05:04;;;;;;;26.08;15.65;;;;;;;;;;4962719;28;20038;-68
2022/11/15 11:07:32;;;;;;;27.65;16.45;;;;;;;;;;4960755;28;20518;-61
2022/11/15 11:10:00;;;;;;;30.85;17.98;;;;;;;;;;4963133;28;20129;-61
2022/11/15 11:12:31;;;;;;;26.15;16.00;;;;;;;;;;4961628;28;20133;-69
2022/11/15 11:14:58;;;;;;;27.67;15.93;;;;;;;;;;4961643;28;20426;-65
2022/11/15 11:17:25;;;;;;;26.98;15.98;;;;;;;;;;4947111;28;20356;-62
2022/11/15 11:19:54;;;;;;;24.13;14.60;;;;;;;;;;4961562;28;20054;-62
2022/11/15 11:22:27;;;;;;;22.02;14.32;;;;;;;;;;4954214;29;20035;-67
2022/11/15 11:25:05;;;;;;;26.90;15.30;;;;;;;;;;4953692;28;20066;-62
2022/11/15 11:27:37;;;;;;;28.13;15.48;;;;;;;;;;4953623;29;20048;-63
2022/11/15 11:30:10;;;;;;;23.20;15.32;;;;;;;;;;4953964;29;20122;-70
2022/11/15 11:32:36;;;;;;;;;;;;;;;;;;4954029;29;20077;-60
2022/11/15 11:35:14;;;;;;;25.88;14.48;;;;;;;;;;4954639;29;19915;-61
2022/11/15 11:37:43;;;;;;;29.02;16.95;;;;;;;;;;4954343;29;20085;-69
2022/11/15 11:40:12;;;;;;;28.55;15.98;;;;;;;;;;4954236;29;20035;-62
2022/11/15 11:42:44;;;;;;;27.77;15.77;;;;;;;;;;4954066;29;20495;-66
2022/11/15 11:45:10;;;;;;;;;;;;;;;;;;4954669;29;20067;-62
2022/11/15 11:47:59;;;;;;;28.10;16.45;;;;;;;;;;4953858;29;20013;-73
2022/11/15 11:50:28;;;;;;;29.02;16.63;;;;;;;;;;4876034;29;20057;-62
2022/11/15 11:53:00;;;;;;;30.38;16.77;;;;;;;;;;4875869;29;20142;-62
2022/11/15 11:55:45;;;;;;;31.15;16.55;;;;;;;;;;4875951;29;20045;-70
2022/11/15 11:58:16;;;;;;;26.75;16.65;;;;;;;;;;4875778;29;20033;-62
2022/11/15 12:00:47;;;;;;;29.38;16.73;;;;;;;;;;4875509;29;20075;-71
2022/11/15 12:03:28;;;;;;;31.02;16.55;;;;;;;;;;4875788;29;20073;-73
2022/11/15 12:06:01;;;;;;;30.85;16.27;;;;;;;;;;4875685;29;20040;-62
2022/11/15 12:08:30;;;;;;;28.58;17.00;;;;;;;;;;4875904;29;20049;-62
2022/11/15 12:11:15;;;;;;;27.08;15.50;;;;;;;;;;4876473;29;20043;-69
2022/11/15 12:13:41;;;;;;;28.73;16.67;;;;;;;;;;4894381;29;20529;-74
2022/11/15 12:16:10;;;;;;;29.67;17.40;;;;;;;;;;4894387;29;20059;-63
2022/11/15 12:18:36;;;;;;;33.22;18.23;;;;;;;;;;4893984;29;20040;-65
2022/11/15 12:21:06;;;;;;;36.22;18.35;;;;;;;;;;4894395;29;20410;-74
2022/11/15 12:23:36;;;;;;;32.17;18.58;;;;;;;;;;4883918;29;20073;-64
2022/11/15 12:26:07;;;;;;;33.78;19.23;;;;;;;;;;4879862;29;20032;-64
2022/11/15 12:28:42;;;;;;;25.80;14.27;;;;;;;;;;4959052;28;20034;-63
2022/11/15 12:31:30;;;;;;;36.63;19.98;;;;;;;;;;4960645;28;20399;-62
2022/11/15 12:33:57;;;;;;;37.60;19.50;;;;;;;;;;4962544;28;20042;-69
2022/11/15 12:36:23;;;;;;;36.40;19.75;;;;;;;;;;4960468;28;20020;-64
2022/11/15 12:38:55;;;;;;;34.65;19.92;;;;;;;;;;4962318;28;20593;-63
2022/11/15 12:41:23;;;;;;;41.88;20.95;;;;;;;;;;4962414;28;20493;-63
2022/11/15 12:43:49;;;;;;;38.20;20.30;;;;;;;;;;4961473;28;20072;-63
2022/11/15 12:46:30;;;;;;;38.25;21.00;;;;;;;;;;4961479;28;20027;-70
2022/11/15 12:49:00;;;;;;;34.65;20.33;;;;;;;;;;4962206;28;20032;-72
2022/11/15 12:51:46;;;;;;;35.78;20.13;;;;;;;;;;4960941;28;20070;-70
2022/11/15 12:54:26;;;;;;;37.85;21.13;;;;;;;;;;4961305;28;20458;-63
2022/11/15 12:57:07;;;;;;;39.35;21.55;;;;;;;;;;4961275;28;20487;-63
2022/11/15 12:59:54;;;;;;;38.88;20.85;;;;;;;;;;4961225;28;20114;-63
2022/11/15 13:02:22;;;;;;;38.30;21.60;;;;;;;;;;4961939;28;20039;-63
2022/11/15 13:04:48;;;;;;;37.83;21.38;;;;;;;;;;4960559;28;20023;-63
2022/11/15 13:07:33;;;;;;;38.88;21.08;;;;;;;;;;4961141;28;20479;-71
2022/11/15 13:09:59;;;;;;;36.67;20.92;;;;;;;;;;4962000;28;20093;-63
2022/11/15 13:12:25;;;;;;;43.55;22.80;;;;;;;;;;4959620;28;20039;-63
2022/11/15 13:14:59;;;;;;;39.75;22.20;;;;;;;;;;4960290;28;20463;-71
2022/11/15 13:17:25;;;;;;;45.25;21.80;;;;;;;;;;4959320;28;20037;-63
2022/11/15 13:19:54;;;;;;;40.80;22.00;;;;;;;;;;4959532;28;20023;-63
2022/11/15 13:25:15;;;;;;;41.05;22.77;;;;;;;;;;4971949;28;20089;-63
2022/11/15 13:27:41;;;;;;;46.28;23.88;;;;;;;;;;4971360;28;20030;-64
2022/11/15 13:30:16;;;;;;;43.38;23.38;;;;;;;;;;4971638;28;20047;-63
2022/11/15 13:32:42;;;;;;;43.15;22.25;;;;;;;;;;4971671;28;20022;-69
2022/11/15 13:35:08;;;;;;;42.80;22.48;;;;;;;;;;4971554;28;20078;-64
2022/11/15 13:37:34;;;;;;;39.40;21.58;;;;;;;;;;4971895;28;20023;-63
2022/11/15 13:40:21;;;;;;;39.40;21.83;;;;;;;;;;4971844;28;20092;-64
2022/11/15 13:42:47;;;;;;;42.95;23.67;;;;;;;;;;4971871;28;20430;-66
2022/11/15 13:45:15;;;;;;;40.60;22.58;;;;;;;;;;4971784;28;20031;-64
2022/11/15 13:47:41;;;;;;;37.83;21.35;;;;;;;;;;4972161;28;20136;-63
2022/11/15 13:50:11;;;;;;;45.10;23.40;;;;;;;;;;4975268;28;20140;-63
2022/11/15 13:52:39;;;;;;;46.00;24.05;;;;;;;;;;4975571;28;20106;-63
2022/11/15 13:55:15;;;;;;;38.75;22.10;;;;;;;;;;4975661;28;20474;-63
2022/11/15 13:57:41;;;;;;;41.65;22.48;;;;;;;;;;4975551;28;20169;-63
2022/11/15 14:00:24;;;;;;;41.28;22.15;;;;;;;;;;4974880;28;20059;-63
2022/11/15 14:02:51;;;;;;;38.83;21.83;;;;;;;;;;4975335;28;20482;-63
2022/11/15 14:05:19;;;;;;;36.67;20.70;;;;;;;;;;4975145;28;20510;-67
2022/11/15 14:07:58;;;;;;;39.88;20.65;;;;;;;;;;4975515;28;20023;-63
2022/11/15 14:10:27;;;;;;;36.13;19.92;;;;;;;;;;4974331;28;20047;-62
2022/11/15 14:12:53;;;;;;;39.65;20.88;;;;;;;;;;4974854;28;20085;-63
2022/11/15 14:15:25;;;;;;;41.58;21.08;;;;;;;;;;4974957;28;20058;-71
2022/11/15 14:17:51;;;;;;;41.60;21.42;;;;;;;;;;4974982;28;20031;-65
2022/11/15 14:20:35;;;;;;;41.80;20.95;;;;;;;;;;4974327;28;20125;-64
2022/11/15 14:23:05;;;;;;;41.17;22.38;;;;;;;;;;4974690;28;20778;-65
2022/11/15 14:25:32;;;;;;;35.38;19.92;;;;;;;;;;4974471;28;20030;-64
2022/11/15 14:28:09;;;;;;;36.78;19.65;;;;;;;;;;4974485;28;20106;-64
2022/11/15 14:30:35;;;;;;;36.83;20.40;;;;;;;;;;4974704;28;20085;-64
2022/11/15 14:33:02;;;;;;;37.90;20.10;;;;;;;;;;4974314;28;20097;-63
2022/11/15 14:35:28;;;;;;;41.35;21.15;;;;;;;;;;4974927;28;20029;-64
2022/11/15 14:37:54;;;;;;;42.88;24.48;;;;;;;;;;4974825;28;20031;-64
2022/11/15 14:40:22;;;;;;;51.65;25.23;;;;;;;;;;4974478;28;20031;-64
2022/11/15 14:42:49;;;;;;;55.50;28.63;;;;;;;;;;4974964;28;20023;-64
2022/11/15 14:45:15;;;;;;;48.28;24.65;;;;;;;;;;4974792;28;20455;-64
2022/11/15 14:47:41;;;;;;;52.75;28.27;;;;;;;;;;4974779;28;20023;-65
2022/11/15 14:50:11;;;;;;;59.45;29.20;;;;;;;;;;4974322;28;20509;-65
2022/11/15 14:52:37;;;;;;;51.55;27.48;;;;;;;;;;4974872;28;20027;-65
2022/11/15 14:55:04;;;;;;;64.18;31.38;;;;;;;;;;4974509;28;20046;-65
2022/11/15 14:57:30;;;;;;;54.33;31.23;;;;;;;;;;4974084;28;20027;-65
2022/11/15 14:59:57;;;;;;;57.95;30.58;;;;;;;;;;4962928;28;20106;-65
2022/11/15 15:02:24;;;;;;;62.17;31.02;;;;;;;;;;4959618;28;20034;-64
2022/11/15 15:04:50;;;;;;;60.65;31.88;;;;;;;;;;4955109;29;20028;-65
2022/11/15 15:07:16;;;;;;;54.17;29.15;;;;;;;;;;4954790;29;20704;-65
2022/11/15 15:09:42;;;;;;;61.20;29.63;;;;;;;;;;4954925;29;20399;-65
2022/11/15 15:12:15;;;;;;;57.30;30.30;;;;;;;;;;4954642;29;20079;-68
2022/11/15 15:14:41;;;;;;;59.88;31.92;;;;;;;;;;4954551;29;20110;-71
2022/11/15 15:17:07;;;;;;;68.15;33.53;;;;;;;;;;4954855;29;20448;-63
2022/11/15 15:19:33;;;;;;;65.15;34.38;;;;;;;;;;4937557;29;20047;-64
2022/11/15 15:21:59;;;;;;;67.20;34.25;;;;;;;;;;4954739;29;20053;-66
2022/11/15 15:24:25;;;;;;;79.80;40.10;;;;;;;;;;4954895;28;20049;-66
2022/11/15 15:26:51;;;;;;;75.53;37.70;;;;;;;;;;4955736;28;20082;-64
2022/11/15 15:29:17;;;;;;;72.38;37.83;;;;;;;;;;4956641;28;20368;-64
2022/11/15 15:31:43;;;;;;;73.28;38.80;;;;;;;;;;4963477;28;20114;-65
2022/11/15 15:34:09;;;;;;;78.45;39.17;;;;;;;;;;4962032;28;20058;-64
2022/11/15 15:36:35;;;;;;;83.97;41.20;;;;;;;;;;4973825;28;20058;-65
2022/11/15 15:39:01;;;;;;;87.72;42.38;;;;;;;;;;4973818;28;20553;-63
2022/11/15 15:41:27;;;;;;;93.50;43.95;;;;;;;;;;4973265;28;20077;-67
2022/11/15 15:43:53;;;;;;;105.53;44.63;;;;;;;;;;4955012;28;20399;-63
2022/11/15 15:46:20;;;;;;;91.97;43.72;;;;;;;;;;4973480;28;20030;-69
2022/11/15 15:48:46;;;;;;;98.93;47.35;;;;;;;;;;4969815;28;20133;-62
2022/11/15 15:51:12;;;;;;;103.60;50.15;;;;;;;;;;4961514;28;20039;-63
2022/11/15 15:53:39;;;;;;;92.47;48.08;;;;;;;;;;4965381;28;20077;-62
2022/11/15 15:56:07;;;;;;;90.50;44.60;;;;;;;;;;4962728;28;20462;-62
2022/11/15 15:58:34;;;;;;;98.65;48.70;;;;;;;;;;4961082;28;20030;-67
2022/11/15 16:01:00;;;;;;;105.35;49.80;;;;;;;;;;4965717;28;20113;-68
2022/11/15 16:03:27;;;;;;;95.68;48.60;;;;;;;;;;4963047;28;20737;-62
2022/11/15 16:05:53;;;;;;;89.93;48.67;;;;;;;;;;4964250;28;20042;-62
2022/11/15 16:08:20;;;;;;;112.30;54.92;;;;;;;;;;4957494;28;20467;-63
2022/11/15 16:10:46;;;;;;;115.68;59.33;;;;;;;;;;4952842;28;20059;-62
2022/11/15 16:13:13;;;;;;;149.13;79.55;;;;;;;;;;4953453;29;20049;-62
2022/11/15 16:15:39;;;;;;;110.28;56.80;;;;;;;;;;4953044;29;20110;-63
2022/11/15 16:18:07;;;;;;;90.60;45.72;;;;;;;;;;4954105;29;20758;-67
2022/11/15 16:20:36;;;;;;;80.20;43.00;;;;;;;;;;4938169;28;20031;-70
2022/11/15 16:23:04;;;;;;;77.95;39.05;;;;;;;;;;4954625;28;20075;-63
2022/11/15 16:25:32;;;;;;;82.32;41.22;;;;;;;;;;4972802;28;20467;-64
2022/11/15 16:27:58;;;;;;;73.28;39.30;;;;;;;;;;4972680;28;20105;-62
2022/11/15 16:30:24;;;;;;;72.20;37.00;;;;;;;;;;4972820;28;20042;-63
2022/11/15 16:32:50;;;;;;;73.45;38.13;;;;;;;;;;4972623;28;20022;-63
2022/11/15 16:35:17;;;;;;;81.15;42.65;;;;;;;;;;4964193;28;20031;-63
2022/11/15 16:37:45;;;;;;;78.38;42.35;;;;;;;;;;4959289;28;20027;-61
2022/11/15 16:40:21;;;;;;;82.45;45.13;;;;;;;;;;4969280;28;20086;-61
2022/11/15 16:42:47;;;;;;;85.30;44.65;;;;;;;;;;4972442;28;20646;-62
2022/11/15 16:45:13;;;;;;;76.28;41.78;;;;;;;;;;4964940;28;20138;-62
2022/11/15 16:47:39;;;;;;;82.80;42.83;;;;;;;;;;4968341;28;20101;-62
2022/11/15 16:50:06;;;;;;;87.53;42.95;;;;;;;;;;4972332;28;20395;-62
2022/11/15 16:52:32;;;;;;;74.15;39.55;;;;;;;;;;4972430;28;20023;-62
2022/11/15 16:54:58;;;;;;;83.78;42.05;;;;;;;;;;4965412;28;20035;-63
2022/11/15 16:57:24;;;;;;;87.35;44.70;;;;;;;;;;4959925;28;20357;-61
2022/11/15 16:59:50;;;;;;;88.22;45.08;;;;;;;;;;4961877;28;20195;-62
2022/11/15 17:02:16;;;;;;;86.15;45.63;;;;;;;;;;4954648;28;20599;-61
2022/11/15 17:04:42;;;;;;;89.60;46.65;;;;;;;;;;4953093;29;20027;-62
2022/11/15 17:07:08;;;;;;;110.45;56.67;;;;;;;;;;4963810;28;20057;-63
2022/11/15 17:09:34;;;;;;;103.10;52.33;;;;;;;;;;4967181;28;20064;-61
2022/11/15 17:12:00;;;;;;;100.30;52.13;;;;;;;;;;4952105;29;20058;-62
2022/11/15 17:14:26;;;;;;;103.70;51.17;;;;;;;;;;4952561;29;20049;-62
2022/11/15 17:16:52;;;;;;;97.05;50.60;;;;;;;;;;4952501;29;20049;-62
2022/11/15 17:19:19;;;;;;;96.57;50.10;;;;;;;;;;4952789;29;20090;-61
2022/11/15 17:21:48;;;;;;;107.55;54.83;;;;;;;;;;4952707;28;20038;-62
2022/11/15 17:24:14;;;;;;;104.28;52.03;;;;;;;;;;4954779;28;20035;-62
2022/11/15 17:26:41;;;;;;;99.03;51.47;;;;;;;;;;4957157;28;20041;-60
2022/11/15 17:29:08;;;;;;;103.85;53.67;;;;;;;;;;4952241;29;20074;-61
2022/11/15 17:31:37;;;;;;;117.10;56.22;;;;;;;;;;4951908;29;20063;-61
2022/11/15 17:34:04;;;;;;;110.88;55.55;;;;;;;;;;4952307;29;20058;-61
2022/11/15 17:36:30;;;;;;;111.45;54.78;;;;;;;;;;4952648;29;20489;-61
2022/11/15 17:38:56;;;;;;;110.65;57.10;;;;;;;;;;4952720;29;20052;-62
2022/11/15 17:41:22;;;;;;;124.90;61.30;;;;;;;;;;4959524;28;20030;-62
2022/11/15 17:43:48;;;;;;;109.70;56.13;;;;;;;;;;4954444;28;20031;-61
2022/11/15 17:46:19;;;;;;;137.40;69.55;;;;;;;;;;4952733;28;20104;-61
2022/11/15 17:48:46;;;;;;;117.68;59.90;;;;;;;;;;4957695;28;20034;-62
2022/11/15 17:51:14;;;;;;;118.78;61.20;;;;;;;;;;4952568;29;20085;-60
2022/11/15 17:53:41;;;;;;;119.70;61.10;;;;;;;;;;4952527;29;20043;-61
2022/11/15 17:56:08;;;;;;;126.03;65.22;;;;;;;;;;4952429;29;20559;-61
2022/11/15 17:58:34;;;;;;;124.07;63.95;;;;;;;;;;4952300;29;20468;-61
2022/11/15 18:01:20;;;;;;;124.40;63.58;;;;;;;;;;4952119;29;20071;-65
2022/11/15 18:03:46;;;;;;;124.13;62.38;;;;;;;;;;4952511;28;20360;-63
2022/11/15 18:06:13;;;;;;;127.82;64.15;;;;;;;;;;4971445;28;20027;-62
2022/11/15 18:08:40;;;;;;;125.28;66.45;;;;;;;;;;4971526;28;20027;-62
2022/11/15 18:11:16;;;;;;;126.65;65.45;;;;;;;;;;4971272;28;20147;-61
2022/11/15 18:13:45;;;;;;;153.95;75.22;;;;;;;;;;4968055;28;20099;-62
2022/11/15 18:16:12;;;;;;;139.52;70.70;;;;;;;;;;4958965;28;20030;-62
2022/11/15 18:18:38;;;;;;;138.43;69.03;;;;;;;;;;4959112;28;20658;-68
2022/11/15 18:21:06;;;;;;;145.88;75.90;;;;;;;;;;4954704;28;20031;-63
2022/11/15 18:23:32;;;;;;;156.40;78.15;;;;;;;;;;4952401;29;20542;-61
2022/11/15 18:25:59;;;;;;;157.55;79.60;;;;;;;;;;4951728;28;20023;-63
2022/11/15 18:28:35;;;;;;;147.65;75.68;;;;;;;;;;4950657;28;20148;-72
2022/11/15 18:31:02;;;;;;;151.90;77.32;;;;;;;;;;4951432;29;20035;-71
2022/11/15 18:33:28;;;;;;;155.77;80.80;;;;;;;;;;4951322;28;20025;-62
2022/11/15 18:35:59;;;;;;;160.43;82.80;;;;;;;;;;4955502;29;20079;-62
2022/11/15 18:38:29;;;;;;;162.63;82.85;;;;;;;;;;4962586;28;20027;-67
2022/11/15 18:40:55;;;;;;;158.88;81.38;;;;;;;;;;4959617;28;20047;-64
2022/11/15 18:43:21;;;;;;;155.43;78.15;;;;;;;;;;4955707;29;20102;-61
2022/11/15 18:45:47;;;;;;;152.23;77.15;;;;;;;;;;4955347;29;20106;-63
2022/11/15 18:48:13;;;;;;;144.02;75.72;;;;;;;;;;4954924;29;20415;-68
2022/11/15 18:50:39;;;;;;;153.23;78.00;;;;;;;;;;4963709;28;20067;-62
2022/11/15 18:53:05;;;;;;;149.52;77.65;;;;;;;;;;4961270;28;20026;-62
2022/11/15 18:55:31;;;;;;;146.15;76.60;;;;;;;;;;4962719;28;20026;-62
2022/11/15 18:57:57;;;;;;;153.98;78.25;;;;;;;;;;4963054;28;20492;-63
2022/11/15 19:00:24;;;;;;;147.05;77.18;;;;;;;;;;4963665;28;20023;-62
2022/11/15 19:02:53;;;;;;;141.63;73.13;;;;;;;;;;4964494;28;20078;-63
2022/11/15 19:05:20;;;;;;;144.52;73.95;;;;;;;;;;4963086;28;20035;-63
2022/11/15 19:07:49;;;;;;;144.70;74.53;;;;;;;;;;4963689;28;20039;-63
2022/11/15 19:10:15;;;;;;;134.00;70.47;;;;;;;;;;4964487;28;20066;-66
2022/11/15 19:12:41;;;;;;;134.95;70.07;;;;;;;;;;4962901;28;20047;-61
2022/11/15 19:15:07;;;;;;;139.85;72.90;;;;;;;;;;4963082;28;20033;-61
2022/11/15 19:17:33;;;;;;;141.93;72.60;;;;;;;;;;4964255;28;20149;-68
2022/11/15 19:19:59;;;;;;;143.13;72.75;;;;;;;;;;4962785;28;20027;-67
2022/11/15 19:22:25;;;;;;;150.10;74.95;;;;;;;;;;4963226;28;20037;-64
2022/11/15 19:24:51;;;;;;;159.38;79.50;;;;;;;;;;4963953;28;20031;-62
2022/11/15 19:27:18;;;;;;;164.35;83.95;;;;;;;;;;4967648;28;20125;-63
2022/11/15 19:29:44;;;;;;;159.40;82.43;;;;;;;;;;4973567;28;20034;-61
2022/11/15 19:32:10;;;;;;;162.20;82.55;;;;;;;;;;4973089;28;20045;-59
2022/11/15 19:34:36;;;;;;;152.63;79.32;;;;;;;;;;4973690;28;20023;-61
2022/11/15 19:37:02;;;;;;;146.23;75.10;;;;;;;;;;4973807;28;20019;-65
2022/11/15 19:39:28;;;;;;;146.70;79.35;;;;;;;;;;4973680;28;20026;-69
2022/11/15 19:41:54;;;;;;;156.52;79.00;;;;;;;;;;4973437;28;20023;-73
2022/11/15 19:44:21;;;;;;;150.85;77.85;;;;;;;;;;4972976;28;20019;-59
2022/11/15 19:46:47;;;;;;;138.32;72.82;;;;;;;;;;4972468;28;20054;-67
2022/11/15 19:49:13;;;;;;;138.30;72.75;;;;;;;;;;4973483;28;20033;-62
2022/11/15 19:51:46;;;;;;;152.68;80.93;;;;;;;;;;4956398;28;20034;-70
2022/11/15 19:54:12;;;;;;;153.25;78.10;;;;;;;;;;4973748;28;20497;-61
2022/11/15 19:56:38;;;;;;;148.93;77.15;;;;;;;;;;4973573;28;20471;-66
2022/11/15 19:59:04;;;;;;;138.88;73.82;;;;;;;;;;4973178;28;20034;-62
2022/11/15 20:01:32;;;;;;;130.43;67.15;;;;;;;;;;4973285;28;20023;-61
2022/11/15 20:03:59;;;;;;;136.25;71.25;;;;;;;;;;4973654;28;20036;-62
2022/11/15 20:06:27;;;;;;;155.27;81.70;;;;;;;;;;4973833;28;20027;-62
2022/11/15 20:08:53;;;;;;;159.05;82.50;;;;;;;;;;4973479;28;20487;-61
2022/11/15 20:11:19;;;;;;;156.65;79.13;;;;;;;;;;4972887;28;20531;-61
2022/11/15 20:13:45;;;;;;;159.70;82.13;;;;;;;;;;4973480;28;20027;-61
2022/11/15 20:16:16;;;;;;;175.23;91.60;;;;;;;;;;4973290;28;20027;-61
2022/11/15 20:18:42;;;;;;;182.32;91.55;;;;;;;;;;4973355;28;20022;-61
2022/11/15 20:21:09;;;;;;;175.13;87.30;;;;;;;;;;4973325;28;20034;-61
2022/11/15 20:23:35;;;;;;;170.75;85.82;;;;;;;;;;4973347;28;20038;-61
2022/11/15 20:26:01;;;;;;;150.48;79.03;;;;;;;;;;4972994;28;20030;-65
2022/11/15 20:28:27;;;;;;;160.25;81.03;;;;;;;;;;4973037;28;20057;-61
2022/11/15 20:30:54;;;;;;;150.18;78.38;;;;;;;;;;4973064;28;20038;-63
2022/11/15 20:33:21;;;;;;;166.13;82.55;;;;;;;;;;4973316;28;20105;-61
2022/11/15 20:35:47;;;;;;;151.93;78.25;;;;;;;;;;4973194;28;20046;-61